Lac Du Bonnet, Canada
Current Conditions -  °F | °C
As of 5:00 AM on Friday 28 Nov 2014 (Local Time) from CYWG Reporting Station
Scattered Clouds Scattered Clouds  
Wind Chill: -10°   Ceiling: Unl
Heat Index:   Visibility: 15mi
Dew Point: -6°   Wind: 5mph
Humidity: 78%   Direction: 80°E
Pressure: 30.08"   Gusts: NA
Location:  50.27°N, 96.05°W
Report Text: CYWG 281100Z 08004KT 15SM FEW120 SCT200 M18/M21 A3008 RMK AC1CI2 SLP210
Loading
Personal Weather Stations






























Interactive Weather Map New forecast layout! Learn more

10-Day Weather Forecast

Advertisements
Track Severe Weather on mobile